Aeroporto :
LOGIN :

Iscrizione | Disclaimer

   EN    FR    IT 

 










Sommario :    VFR   VFR Marginale   IFR   IFR Intensivo   IFR Molto Intensivo
Visibilità : 
Base nubi : 
>= 8 km
>= 3000ft
5 / 8 km
1000 / 3000 ft
1500m / 5 km
500 / 1000 ft
800 / 1500m
200 / 500 ft
< 800m
< 200 ft
Simboli :   Temporali  Nebbia  Neve Forte  Precipitazioni Forti  Vento > 20 kt
SIGMETs :   Varie  Temporali  Ghiacco  Turbolenza  Onda orograficha  Ceneri Vulcaniche






- Altitudine del aeroporto : 17 ft
- Codice IATA : GRQ


EHGG - Groningen Eelde

ULTIMO METAR :
  • 232025Z AUTO 28012KT 250V320 9999 NCD 05/01 Q1016 NOSIG

METARs OBSOLETI :
  • 231955Z AUTO 29014G25KT 250V330 9999 NSC 06/01 Q1015 NOSIG
  • 231925Z AUTO 28013G23KT 240V320 9999 NSC 06/02 Q1014 TEMPO 6000 SHRA SCT015CB
  • 231855Z AUTO 28018G29KT 230V320 9999 -RA FEW015CB BKN021 BKN026 06/02 Q1014 TEMPO 6000 SHRA SCT015CB
  • 231825Z AUTO 29012KT 240V340 9999 FEW015CB SCT021 BKN025 06/03 Q1013 TEMPO 6000 SHRA SCT015CB
  • 231755Z AUTO 27013KT 220V300 9999 -RA FEW015CB SCT030 BKN036 06/03 Q1012 TEMPO 6000 SHRA SCT015CB

TAF TAF EHGG
Valido dal 23 a 18 ore il 25 a 00 ore UTC


231714Z 2318/2424 29015KT 9999 BKN018
PROB30
TEMPO 2318/2320 27018G28KT 6000 SHRA RA BKN012 SCT016CB
BECMG 2400/2403 24007KT
BECMG 2408/2411 17015KT
BECMG 2411/2414 6000 RA BKN012
PROB40
TEMPO 2414/2420 4000 RADZ BKN006
BECMG 2416/2419 24020G32KT 9999 NSW
BECMG 2419/2422 SCT020
PROB40
TEMPO 2420/2424 24023G36KT 7000 -SHRA SCT016TCU BKN020



MetMap, La meteo Aeronautica in un colpo d'occhio ! - Copyright ORBIFLY Dicembre 2007 - Disclaimer

ORBIFLY MET'MAP TEAM :

Programmazione e sviluppo : Alexandra Zaïnal
Concezione : Baudouin d'Aumeries
Aiuto per la programmazione : Marc-Olivier Méhu
Supporto tecnico e logistico : Manuel Goepfert
Aiuto per la traduzione : Arnaldo La Scala

Contatto : metmap@orbifly.com




FONTI E CREDITI :

   NOAA